PWSweather.com
Personal Weather Stations
Station Observations
KKYCRABO2
Cedar Creek Lake 840 Ky. Hwy. 39 N, Crab Orchard, KY 40419

Cedar Creek Lake 840 Ky. Hwy. 39 NCrab Orchard, KY 40419

Lat: 37.4736234544238, Lon: -84.5120286941528

Elevation: 952

Station Type: TYCON Power TP1080WC Pro

http://kbweather.net/

Latest ConditionsUpdated 2:45:01 PM EST Tuesday, Dec 6, 2016
Currently Today's Max Today's Min Today's Average
Temperature 53.6°F12.0°C 54.5°F12.5°C 44.1°F6.7°C 47.6°F8.7°C
Dew Point 51.8°F11.0°C 53.6°F12.0°C 37.4°F3.0°C 44.4°F6.9°C
Winds 1.3 mph WNW2.1 kmh WNW 6.3 mph SE10.1 kmh SE - 1.1 mph 1.8 kmh
Wind Gusts 4.3 mph6.9 kmh 8.9 mph14.3 kmh - -
Humidity 90% 96% 71% 88%
Pressure 29.65 in1004.1 mb 29.79 in1008.8 mb 29.56 in1001.0 mb -
Precipitation - 0.42 in10.7 mm - -
Hour Temp Dew Point Humidity Winds Wind Gusts Pressure Precip Precip Rate Daily Precip Total
02:45 PM 53.6°F12.0°C 51.8°F11.0°C 90% 1.3 mph WNW2.1 kmh WNW 4.3 mph6.9 kmh 29.65 in1004.1 mb 0.00 in0.0 mm 0.00 in0.0 mm 0.42 in10.7 mm
02:40 PM 54.1°F12.3°C 51.8°F11.0°C 92% 0.9 mph W1.4 kmh W 5.4 mph8.7 kmh 29.65 in1004.1 mb 0.00 in0.0 mm 0.00 in0.0 mm 0.42 in10.7 mm
02:35 PM 54.3°F12.4°C 53.6°F12.0°C 93% 1.6 mph W2.6 kmh W 5.4 mph8.7 kmh 29.65 in1004.1 mb 0.00 in0.0 mm 0.00 in0.0 mm 0.42 in10.7 mm
02:30 PM 54.5°F12.5°C 53.6°F12.0°C 93% 1.1 mph W1.8 kmh W 3.8 mph6.1 kmh 29.65 in1004.1 mb 0.00 in0.0 mm 0.00 in0.0 mm 0.42 in10.7 mm
02:25 PM 54.5°F12.5°C 53.6°F12.0°C 93% Calm Calm 3.8 mph6.1 kmh 29.65 in1004.1 mb 0.00 in0.0 mm 0.00 in0.0 mm 0.42 in10.7 mm
02:20 PM 54.5°F12.5°C 53.6°F12.0°C 93% 1.1 mph W1.8 kmh W 3.8 mph6.1 kmh 29.65 in1004.1 mb 0.00 in0.0 mm 0.00 in0.0 mm 0.42 in10.7 mm
02:15 PM 54.5°F12.5°C 53.6°F12.0°C 93% 1.6 mph W2.6 kmh W 4.0 mph6.4 kmh 29.65 in1004.1 mb 0.00 in0.0 mm 0.00 in0.0 mm 0.42 in10.7 mm
02:10 PM 54.5°F12.5°C 53.6°F12.0°C 94% 2.2 mph W3.5 kmh W 4.0 mph6.4 kmh 29.62 in1003.0 mb 0.00 in0.0 mm 0.00 in0.0 mm 0.42 in10.7 mm
02:05 PM 54.5°F12.5°C 53.6°F12.0°C 95% 0.9 mph WSW1.4 kmh WSW 3.4 mph5.5 kmh 29.62 in1003.0 mb 0.00 in0.0 mm 0.00 in0.0 mm 0.42 in10.7 mm
02:00 PM 54.3°F12.4°C 53.6°F12.0°C 95% Calm Calm 3.1 mph5.0 kmh 29.62 in1003.0 mb 0.00 in0.0 mm 0.00 in0.0 mm 0.42 in10.7 mm
01:55 PM 54.1°F12.3°C 53.6°F12.0°C 94% Calm Calm 0.9 mph1.4 kmh 29.62 in1003.0 mb 0.04 in1.0 mm 0.00 in0.0 mm 0.42 in10.7 mm
01:50 PM 54.1°F12.3°C 53.6°F12.0°C 94% Calm Calm 1.6 mph2.6 kmh 29.62 in1003.0 mb 0.04 in1.0 mm 0.00 in0.0 mm 0.42 in10.7 mm
01:45 PM 54.1°F12.3°C 53.6°F12.0°C 95% 1.3 mph SSW2.1 kmh SSW 2.0 mph3.2 kmh 29.62 in1003.0 mb 0.04 in1.0 mm 0.00 in0.0 mm 0.42 in10.7 mm
01:40 PM 54.0°F12.2°C 53.6°F12.0°C 95% Calm Calm 2.2 mph3.5 kmh 29.62 in1003.0 mb 0.04 in1.0 mm 0.00 in0.0 mm 0.42 in10.7 mm
01:35 PM 54.0°F12.2°C 53.6°F12.0°C 95% Calm Calm 2.2 mph3.5 kmh 29.62 in1003.0 mb 0.04 in1.0 mm 0.00 in0.0 mm 0.42 in10.7 mm
01:30 PM 54.0°F12.2°C 53.6°F12.0°C 96% Calm Calm 1.6 mph2.6 kmh 29.62 in1003.0 mb 0.04 in1.0 mm 0.00 in0.0 mm 0.42 in10.7 mm
01:25 PM 53.8°F12.1°C 53.6°F12.0°C 96% Calm Calm 2.0 mph3.2 kmh 29.62 in1003.0 mb 0.04 in1.0 mm 0.00 in0.0 mm 0.42 in10.7 mm
01:20 PM 53.4°F11.9°C 53.6°F12.0°C 96% Calm Calm 3.4 mph5.5 kmh 29.62 in1003.0 mb 0.08 in2.0 mm 0.00 in0.0 mm 0.42 in10.7 mm
01:15 PM 53.2°F11.8°C 51.8°F11.0°C 96% 1.1 mph SE1.8 kmh SE 4.0 mph6.4 kmh 29.62 in1003.0 mb 0.08 in2.0 mm 0.00 in0.0 mm 0.42 in10.7 mm
01:10 PM 52.7°F11.5°C 51.8°F11.0°C 96% 2.2 mph SE3.5 kmh SE 4.3 mph6.9 kmh 29.65 in1004.1 mb 0.13 in3.3 mm 0.00 in0.0 mm 0.42 in10.7 mm
01:05 PM 51.8°F11.0°C 50.0°F10.0°C 95% 3.6 mph SE5.8 kmh SE 4.3 mph6.9 kmh 29.65 in1004.1 mb 0.16 in4.1 mm 0.00 in0.0 mm 0.42 in10.7 mm
01:00 PM 51.4°F10.8°C 50.0°F10.0°C 95% 2.5 mph SE4.0 kmh SE 4.0 mph6.4 kmh 29.65 in1004.1 mb 0.16 in4.1 mm 0.04 in1.0 mm 0.42 in10.7 mm
12:55 PM 51.1°F10.6°C 50.0°F10.0°C 95% 2.9 mph SE4.7 kmh SE 5.4 mph8.7 kmh 29.65 in1004.1 mb 0.12 in3.0 mm 0.00 in0.0 mm 0.38 in9.7 mm
12:50 PM 50.7°F10.4°C 50.0°F10.0°C 95% 3.1 mph SE5.0 kmh SE 5.4 mph8.7 kmh 29.65 in1004.1 mb 0.12 in3.0 mm 0.00 in0.0 mm 0.38 in9.7 mm
12:45 PM 50.4°F10.2°C 48.2°F9.0°C 94% 3.4 mph SE5.5 kmh SE 4.3 mph6.9 kmh 29.65 in1004.1 mb 0.12 in3.0 mm 0.00 in0.0 mm 0.38 in9.7 mm
12:40 PM 49.8°F9.9°C 48.2°F9.0°C 94% 2.2 mph SE3.5 kmh SE 4.0 mph6.4 kmh 29.65 in1004.1 mb 0.17 in4.3 mm 0.00 in0.0 mm 0.38 in9.7 mm
12:35 PM 49.3°F9.6°C 48.2°F9.0°C 94% Calm Calm 4.5 mph7.2 kmh 29.65 in1004.1 mb 0.17 in4.3 mm 0.00 in0.0 mm 0.38 in9.7 mm
12:30 PM 49.1°F9.5°C 48.2°F9.0°C 93% 2.5 mph SE4.0 kmh SE 5.4 mph8.7 kmh 29.65 in1004.1 mb 0.17 in4.3 mm 0.00 in0.0 mm 0.38 in9.7 mm
12:25 PM 48.9°F9.4°C 48.2°F9.0°C 93% 3.8 mph SE6.1 kmh SE 5.4 mph8.7 kmh 29.65 in1004.1 mb 0.17 in4.3 mm 0.48 in12.2 mm 0.38 in9.7 mm
12:20 PM 48.9°F9.4°C 46.4°F8.0°C 92% 1.6 mph SE2.6 kmh SE 2.9 mph4.7 kmh 29.65 in1004.1 mb 0.13 in3.3 mm 0.00 in0.0 mm 0.34 in8.6 mm
12:15 PM 48.7°F9.3°C 46.4°F8.0°C 92% 0.9 mph ESE1.4 kmh ESE 2.2 mph3.5 kmh 29.65 in1004.1 mb 0.13 in3.3 mm 0.60 in15.2 mm 0.34 in8.6 mm
12:10 PM 48.7°F9.3°C 46.4°F8.0°C 92% Calm Calm 0.9 mph1.4 kmh 29.65 in1004.1 mb 0.08 in2.0 mm 0.36 in9.1 mm 0.29 in7.4 mm
12:05 PM 48.7°F9.3°C 46.4°F8.0°C 92% Calm Calm 0.9 mph1.4 kmh 29.65 in1004.1 mb 0.05 in1.3 mm 0.00 in0.0 mm 0.26 in6.6 mm
12:00 PM 48.7°F9.3°C 46.4°F8.0°C 92% Calm Calm 2.0 mph3.2 kmh 29.65 in1004.1 mb 0.05 in1.3 mm 0.00 in0.0 mm 0.26 in6.6 mm
11:55 AM 48.9°F9.4°C 46.4°F8.0°C 92% Calm Calm 2.0 mph3.2 kmh 29.65 in1004.1 mb 0.05 in1.3 mm 0.00 in0.0 mm 0.26 in6.6 mm
11:50 AM 48.9°F9.4°C 46.4°F8.0°C 92% Calm Calm 1.3 mph2.1 kmh 29.65 in1004.1 mb 0.05 in1.3 mm 0.60 in15.2 mm 0.26 in6.6 mm
11:45 AM 49.1°F9.5°C 48.2°F9.0°C 92% Calm Calm 1.3 mph2.1 kmh 29.65 in1004.1 mb 0.00 in0.0 mm 0.00 in0.0 mm 0.21 in5.3 mm
11:40 AM 49.3°F9.6°C 48.2°F9.0°C 92% Calm Calm 1.1 mph1.8 kmh 29.65 in1004.1 mb 0.00 in0.0 mm 0.00 in0.0 mm 0.21 in5.3 mm
11:35 AM 49.3°F9.6°C 48.2°F9.0°C 92% Calm Calm 1.1 mph1.8 kmh 29.65 in1004.1 mb 0.00 in0.0 mm 0.00 in0.0 mm 0.21 in5.3 mm
11:30 AM 49.6°F9.8°C 48.2°F9.0°C 92% Calm Calm 1.3 mph2.1 kmh 29.65 in1004.1 mb 0.00 in0.0 mm 0.00 in0.0 mm 0.21 in5.3 mm
11:25 AM 49.8°F9.9°C 48.2°F9.0°C 93% Calm Calm 1.3 mph2.1 kmh 29.65 in1004.1 mb 0.00 in0.0 mm 0.00 in0.0 mm 0.21 in5.3 mm
11:20 AM 50.2°F10.1°C 48.2°F9.0°C 93% Calm Calm 1.1 mph1.8 kmh 29.65 in1004.1 mb 0.00 in0.0 mm 0.00 in0.0 mm 0.21 in5.3 mm
11:15 AM 50.2°F10.1°C 48.2°F9.0°C 93% Calm Calm -- 29.65 in1004.1 mb 0.00 in0.0 mm 0.00 in0.0 mm 0.21 in5.3 mm
11:10 AM 50.2°F10.1°C 48.2°F9.0°C 93% Calm Calm 2.5 mph4.0 kmh 29.65 in1004.1 mb 0.00 in0.0 mm 0.00 in0.0 mm 0.21 in5.3 mm
11:05 AM 50.4°F10.2°C 48.2°F9.0°C 93% Calm Calm 2.5 mph4.0 kmh 29.65 in1004.1 mb 0.00 in0.0 mm 0.00 in0.0 mm 0.21 in5.3 mm
11:00 AM 50.5°F10.3°C 48.2°F9.0°C 94% Calm Calm 1.1 mph1.8 kmh 29.65 in1004.1 mb 0.00 in0.0 mm 0.00 in0.0 mm 0.21 in5.3 mm
10:55 AM 50.7°F10.4°C 48.2°F9.0°C 94% Calm Calm 2.2 mph3.5 kmh 29.65 in1004.1 mb 0.00 in0.0 mm 0.00 in0.0 mm 0.21 in5.3 mm
10:50 AM 50.7°F10.4°C 48.2°F9.0°C 94% Calm Calm 2.2 mph3.5 kmh 29.65 in1004.1 mb 0.00 in0.0 mm 0.00 in0.0 mm 0.21 in5.3 mm
10:45 AM 50.7°F10.4°C 48.2°F9.0°C 94% Calm Calm 2.7 mph4.3 kmh 29.65 in1004.1 mb 0.00 in0.0 mm 0.00 in0.0 mm 0.21 in5.3 mm
10:40 AM 50.7°F10.4°C 48.2°F9.0°C 94% 1.1 mph SW1.8 kmh SW 2.7 mph4.3 kmh 29.62 in1003.0 mb 0.00 in0.0 mm 0.00 in0.0 mm 0.21 in5.3 mm
10:35 AM 50.5°F10.3°C 48.2°F9.0°C 94% Calm Calm 0.9 mph1.4 kmh 29.62 in1003.0 mb 0.00 in0.0 mm 0.00 in0.0 mm 0.21 in5.3 mm
10:30 AM 50.4°F10.2°C 48.2°F9.0°C 94% Calm Calm 1.6 mph2.6 kmh 29.62 in1003.0 mb 0.00 in0.0 mm 0.00 in0.0 mm 0.21 in5.3 mm
10:25 AM 50.4°F10.2°C 48.2°F9.0°C 94% Calm Calm 1.6 mph2.6 kmh 29.56 in1001.0 mb 0.00 in0.0 mm 0.00 in0.0 mm 0.21 in5.3 mm
10:20 AM 50.2°F10.1°C 48.2°F9.0°C 94% Calm Calm -- 29.56 in1001.0 mb 0.00 in0.0 mm 0.00 in0.0 mm 0.21 in5.3 mm
10:15 AM 50.0°F10.0°C 48.2°F9.0°C 94% Calm Calm -- 29.56 in1001.0 mb 0.00 in0.0 mm 0.00 in0.0 mm 0.21 in5.3 mm
10:10 AM 50.0°F10.0°C 48.2°F9.0°C 94% Calm Calm -- 29.59 in1002.0 mb 0.00 in0.0 mm 0.00 in0.0 mm 0.21 in5.3 mm
10:05 AM 49.8°F9.9°C 48.2°F9.0°C 94% Calm Calm -- 29.59 in1002.0 mb 0.00 in0.0 mm 0.00 in0.0 mm 0.21 in5.3 mm
10:00 AM 49.6°F9.8°C 48.2°F9.0°C 94% Calm Calm -- 29.59 in1002.0 mb 0.04 in1.0 mm 0.00 in0.0 mm 0.21 in5.3 mm
09:55 AM 49.5°F9.7°C 48.2°F9.0°C 94% Calm Calm -- 29.56 in1001.0 mb 0.04 in1.0 mm 0.00 in0.0 mm 0.21 in5.3 mm
09:50 AM 49.5°F9.7°C 48.2°F9.0°C 94% Calm Calm -- 29.56 in1001.0 mb 0.04 in1.0 mm 0.00 in0.0 mm 0.21 in5.3 mm
09:45 AM 49.3°F9.6°C 48.2°F9.0°C 94% Calm Calm -- 29.56 in1001.0 mb 0.04 in1.0 mm 0.00 in0.0 mm 0.21 in5.3 mm
09:40 AM 49.3°F9.6°C 48.2°F9.0°C 94% Calm Calm -- 29.59 in1002.0 mb 0.04 in1.0 mm 0.00 in0.0 mm 0.21 in5.3 mm
09:35 AM 49.1°F9.5°C 48.2°F9.0°C 94% Calm Calm -- 29.59 in1002.0 mb 0.08 in2.0 mm 0.00 in0.0 mm 0.21 in5.3 mm
09:30 AM 48.9°F9.4°C 48.2°F9.0°C 94% Calm Calm -- 29.59 in1002.0 mb 0.08 in2.0 mm 0.00 in0.0 mm 0.21 in5.3 mm
09:25 AM 48.7°F9.3°C 48.2°F9.0°C 94% Calm Calm -- 29.59 in1002.0 mb 0.08 in2.0 mm 0.00 in0.0 mm 0.21 in5.3 mm
09:20 AM 48.6°F9.2°C 48.2°F9.0°C 94% Calm Calm 1.6 mph2.6 kmh 29.59 in1002.0 mb 0.08 in2.0 mm 0.00 in0.0 mm 0.21 in5.3 mm
09:15 AM 48.4°F9.1°C 46.4°F8.0°C 94% Calm Calm 3.4 mph5.5 kmh 29.59 in1002.0 mb 0.08 in2.0 mm 0.00 in0.0 mm 0.21 in5.3 mm
09:10 AM 48.4°F9.1°C 46.4°F8.0°C 94% Calm Calm 4.0 mph6.4 kmh 29.59 in1002.0 mb 0.08 in2.0 mm 0.00 in0.0 mm 0.21 in5.3 mm
09:05 AM 48.4°F9.1°C 46.4°F8.0°C 94% 3.6 mph NE5.8 kmh NE 4.0 mph6.4 kmh 29.59 in1002.0 mb 0.08 in2.0 mm 0.48 in12.2 mm 0.21 in5.3 mm
09:00 AM 48.4°F9.1°C 46.4°F8.0°C 94% Calm Calm 2.9 mph4.7 kmh 29.59 in1002.0 mb 0.04 in1.0 mm 0.00 in0.0 mm 0.17 in4.3 mm
08:55 AM 48.4°F9.1°C 46.4°F8.0°C 94% 0.9 mph NE1.4 kmh NE 2.9 mph4.7 kmh 29.62 in1003.0 mb 0.04 in1.0 mm 0.00 in0.0 mm 0.17 in4.3 mm
08:50 AM 48.4°F9.1°C 46.4°F8.0°C 94% Calm Calm 2.9 mph4.7 kmh 29.62 in1003.0 mb 0.04 in1.0 mm 0.00 in0.0 mm 0.17 in4.3 mm
08:45 AM 48.4°F9.1°C 46.4°F8.0°C 94% 0.9 mph S1.4 kmh S 4.0 mph6.4 kmh 29.62 in1003.0 mb 0.04 in1.0 mm 0.00 in0.0 mm 0.17 in4.3 mm
08:40 AM 48.4°F9.1°C 46.4°F8.0°C 94% 1.3 mph SE2.1 kmh SE 6.5 mph10.5 kmh 29.59 in1002.0 mb 0.04 in1.0 mm 0.48 in12.2 mm 0.17 in4.3 mm
08:35 AM 48.4°F9.1°C 46.4°F8.0°C 94% 3.6 mph SE5.8 kmh SE 6.5 mph10.5 kmh 29.59 in1002.0 mb 0.00 in0.0 mm 0.00 in0.0 mm 0.13 in3.3 mm
08:30 AM 48.4°F9.1°C 48.2°F9.0°C 95% 4.3 mph SE6.9 kmh SE 7.2 mph11.6 kmh 29.59 in1002.0 mb 0.00 in0.0 mm 0.00 in0.0 mm 0.13 in3.3 mm
08:25 AM 48.2°F9.0°C 48.2°F9.0°C 95% 2.2 mph SE3.5 kmh SE 7.2 mph11.6 kmh 29.56 in1001.0 mb 0.00 in0.0 mm 0.00 in0.0 mm 0.13 in3.3 mm
08:20 AM 48.0°F8.9°C 46.4°F8.0°C 94% 6.3 mph ESE10.1 kmh ESE 6.7 mph10.8 kmh 29.56 in1001.0 mb 0.00 in0.0 mm 0.00 in0.0 mm 0.13 in3.3 mm
08:15 AM 47.8°F8.8°C 46.4°F8.0°C 94% 4.3 mph SE6.9 kmh SE 5.6 mph9.0 kmh 29.56 in1001.0 mb 0.00 in0.0 mm 0.00 in0.0 mm 0.13 in3.3 mm
08:10 AM 47.5°F8.6°C 46.4°F8.0°C 94% 2.7 mph SE4.3 kmh SE 6.3 mph10.1 kmh 29.56 in1001.0 mb 0.00 in0.0 mm 0.00 in0.0 mm 0.13 in3.3 mm
08:05 AM 47.3°F8.5°C 46.4°F8.0°C 94% 3.6 mph E5.8 kmh E 6.3 mph10.1 kmh 29.56 in1001.0 mb 0.00 in0.0 mm 0.00 in0.0 mm 0.13 in3.3 mm
08:00 AM 47.1°F8.4°C 46.4°F8.0°C 94% 3.4 mph E5.5 kmh E 5.8 mph9.3 kmh 29.56 in1001.0 mb 0.00 in0.0 mm 0.00 in0.0 mm 0.13 in3.3 mm
07:55 AM 46.9°F8.3°C 46.4°F8.0°C 94% 4.5 mph E7.2 kmh E 7.6 mph12.2 kmh 29.56 in1001.0 mb 0.00 in0.0 mm 0.00 in0.0 mm 0.13 in3.3 mm
07:50 AM 46.8°F8.2°C 44.6°F7.0°C 94% 3.4 mph ESE5.5 kmh ESE 8.9 mph14.3 kmh 29.56 in1001.0 mb 0.00 in0.0 mm 0.00 in0.0 mm 0.13 in3.3 mm
07:45 AM 46.6°F8.1°C 44.6°F7.0°C 93% 6.3 mph SE10.1 kmh SE 8.9 mph14.3 kmh 29.56 in1001.0 mb 0.00 in0.0 mm 0.00 in0.0 mm 0.13 in3.3 mm
07:40 AM 46.4°F8.0°C 44.6°F7.0°C 93% 3.1 mph SE5.0 kmh SE 7.4 mph11.9 kmh 29.59 in1002.0 mb 0.00 in0.0 mm 0.00 in0.0 mm 0.13 in3.3 mm
07:35 AM 46.4°F8.0°C 44.6°F7.0°C 93% 2.9 mph SE4.7 kmh SE 7.4 mph11.9 kmh 29.59 in1002.0 mb 0.00 in0.0 mm 0.00 in0.0 mm 0.13 in3.3 mm
07:30 AM 46.2°F7.9°C 44.6°F7.0°C 93% 3.6 mph SE5.8 kmh SE 4.0 mph6.4 kmh 29.59 in1002.0 mb 0.00 in0.0 mm 0.00 in0.0 mm 0.13 in3.3 mm
07:25 AM 46.2°F7.9°C 44.6°F7.0°C 93% 1.1 mph SE1.8 kmh SE 7.4 mph11.9 kmh 29.59 in1002.0 mb 0.00 in0.0 mm 0.00 in0.0 mm 0.13 in3.3 mm
07:20 AM 46.0°F7.8°C 44.6°F7.0°C 93% 2.9 mph SE4.7 kmh SE 7.4 mph11.9 kmh 29.59 in1002.0 mb 0.00 in0.0 mm 0.00 in0.0 mm 0.13 in3.3 mm
07:15 AM 46.0°F7.8°C 44.6°F7.0°C 93% 4.0 mph SE6.4 kmh SE 7.4 mph11.9 kmh 29.59 in1002.0 mb 0.00 in0.0 mm 0.00 in0.0 mm 0.13 in3.3 mm
07:10 AM 45.9°F7.7°C 42.8°F6.0°C 92% 2.5 mph ESE4.0 kmh ESE 7.4 mph11.9 kmh 29.62 in1003.0 mb 0.00 in0.0 mm 0.00 in0.0 mm 0.13 in3.3 mm
07:05 AM 45.7°F7.6°C 42.8°F6.0°C 92% 3.1 mph SE5.0 kmh SE 7.8 mph12.6 kmh 29.62 in1003.0 mb 0.00 in0.0 mm 0.00 in0.0 mm 0.13 in3.3 mm
07:00 AM 45.5°F7.5°C 42.8°F6.0°C 92% 4.7 mph ESE7.6 kmh ESE 7.8 mph12.6 kmh 29.62 in1003.0 mb 0.00 in0.0 mm 0.00 in0.0 mm 0.13 in3.3 mm
06:55 AM 45.5°F7.5°C 42.8°F6.0°C 92% 3.1 mph E5.0 kmh E 5.4 mph8.7 kmh 29.62 in1003.0 mb 0.00 in0.0 mm 0.00 in0.0 mm 0.13 in3.3 mm
06:50 AM 45.5°F7.5°C 42.8°F6.0°C 91% 2.2 mph E3.5 kmh E 5.4 mph8.7 kmh 29.62 in1003.0 mb 0.00 in0.0 mm 0.00 in0.0 mm 0.13 in3.3 mm
06:45 AM 45.5°F7.5°C 42.8°F6.0°C 92% 1.6 mph ESE2.6 kmh ESE 4.7 mph7.6 kmh 29.62 in1003.0 mb 0.00 in0.0 mm 0.00 in0.0 mm 0.13 in3.3 mm
06:40 AM 45.5°F7.5°C 42.8°F6.0°C 92% 3.6 mph SE5.8 kmh SE 4.7 mph7.6 kmh 29.65 in1004.1 mb 0.00 in0.0 mm 0.00 in0.0 mm 0.13 in3.3 mm
06:35 AM 45.5°F7.5°C 42.8°F6.0°C 91% 3.6 mph SE5.8 kmh SE 4.7 mph7.6 kmh 29.65 in1004.1 mb 0.00 in0.0 mm 0.00 in0.0 mm 0.13 in3.3 mm
06:30 AM 45.5°F7.5°C 42.8°F6.0°C 91% 2.9 mph SE4.7 kmh SE 4.3 mph6.9 kmh 29.65 in1004.1 mb 0.00 in0.0 mm 0.00 in0.0 mm 0.13 in3.3 mm
06:25 AM 45.3°F7.4°C 42.8°F6.0°C 91% 2.7 mph SE4.3 kmh SE 4.3 mph6.9 kmh 29.65 in1004.1 mb 0.00 in0.0 mm 0.00 in0.0 mm 0.13 in3.3 mm
06:20 AM 45.3°F7.4°C 42.8°F6.0°C 90% 2.9 mph ESE4.7 kmh ESE 4.0 mph6.4 kmh 29.65 in1004.1 mb 0.00 in0.0 mm 0.00 in0.0 mm 0.13 in3.3 mm
06:15 AM 45.3°F7.4°C 42.8°F6.0°C 90% 1.1 mph ESE1.8 kmh ESE 2.9 mph4.7 kmh 29.65 in1004.1 mb 0.00 in0.0 mm 0.00 in0.0 mm 0.13 in3.3 mm
06:10 AM 45.1°F7.3°C 42.8°F6.0°C 90% Calm Calm 2.9 mph4.7 kmh 29.65 in1004.1 mb 0.00 in0.0 mm 0.00 in0.0 mm 0.13 in3.3 mm
06:05 AM 45.1°F7.3°C 42.8°F6.0°C 90% 2.0 mph ESE3.2 kmh ESE 2.7 mph4.3 kmh 29.65 in1004.1 mb 0.00 in0.0 mm 0.00 in0.0 mm 0.13 in3.3 mm
06:00 AM 45.0°F7.2°C 42.8°F6.0°C 89% Calm Calm 2.7 mph4.3 kmh 29.65 in1004.1 mb 0.04 in1.0 mm 0.00 in0.0 mm 0.13 in3.3 mm
05:55 AM 45.0°F7.2°C 42.8°F6.0°C 89% Calm Calm 2.0 mph3.2 kmh 29.68 in1005.1 mb 0.04 in1.0 mm 0.00 in0.0 mm 0.13 in3.3 mm
05:50 AM 45.0°F7.2°C 42.8°F6.0°C 90% Calm Calm 2.5 mph4.0 kmh 29.68 in1005.1 mb 0.04 in1.0 mm 0.00 in0.0 mm 0.13 in3.3 mm
05:45 AM 44.8°F7.1°C 42.8°F6.0°C 90% Calm Calm 3.1 mph5.0 kmh 29.68 in1005.1 mb 0.04 in1.0 mm 0.00 in0.0 mm 0.13 in3.3 mm
05:40 AM 44.8°F7.1°C 42.8°F6.0°C 90% 0.9 mph SE1.4 kmh SE 3.1 mph5.0 kmh 29.62 in1003.0 mb 0.04 in1.0 mm 0.00 in0.0 mm 0.13 in3.3 mm
05:35 AM 44.6°F7.0°C 42.8°F6.0°C 89% 1.1 mph E1.8 kmh E 5.4 mph8.7 kmh 29.62 in1003.0 mb 0.04 in1.0 mm 0.00 in0.0 mm 0.13 in3.3 mm
05:30 AM 44.6°F7.0°C 42.8°F6.0°C 89% Calm Calm 5.4 mph8.7 kmh 29.62 in1003.0 mb 0.04 in1.0 mm 0.00 in0.0 mm 0.13 in3.3 mm
05:25 AM 44.6°F7.0°C 42.8°F6.0°C 89% 2.5 mph E4.0 kmh E 4.0 mph6.4 kmh 29.68 in1005.1 mb 0.04 in1.0 mm 0.00 in0.0 mm 0.13 in3.3 mm
05:20 AM 44.6°F7.0°C 42.8°F6.0°C 89% 2.7 mph ESE4.3 kmh ESE 3.8 mph6.1 kmh 29.68 in1005.1 mb 0.04 in1.0 mm 0.00 in0.0 mm 0.13 in3.3 mm
05:15 AM 44.4°F6.9°C 41.0°F5.0°C 88% 2.7 mph ESE4.3 kmh ESE 3.8 mph6.1 kmh 29.68 in1005.1 mb 0.04 in1.0 mm 0.00 in0.0 mm 0.13 in3.3 mm
05:10 AM 44.4°F6.9°C 41.0°F5.0°C 88% Calm Calm 1.6 mph2.6 kmh 29.68 in1005.1 mb 0.04 in1.0 mm 0.00 in0.0 mm 0.13 in3.3 mm
05:05 AM 44.4°F6.9°C 41.0°F5.0°C 88% 0.9 mph E1.4 kmh E 1.6 mph2.6 kmh 29.68 in1005.1 mb 0.04 in1.0 mm 0.48 in12.2 mm 0.13 in3.3 mm
05:00 AM 44.4°F6.9°C 41.0°F5.0°C 88% Calm Calm 1.6 mph2.6 kmh 29.68 in1005.1 mb 0.00 in0.0 mm 0.00 in0.0 mm 0.09 in2.3 mm
04:55 AM 44.4°F6.9°C 41.0°F5.0°C 88% Calm Calm 2.5 mph4.0 kmh 29.68 in1005.1 mb 0.00 in0.0 mm 0.00 in0.0 mm 0.09 in2.3 mm
04:50 AM 44.4°F6.9°C 41.0°F5.0°C 88% Calm Calm 2.5 mph4.0 kmh 29.68 in1005.1 mb 0.00 in0.0 mm 0.00 in0.0 mm 0.09 in2.3 mm
04:45 AM 44.4°F6.9°C 42.8°F6.0°C 89% Calm Calm 4.0 mph6.4 kmh 29.68 in1005.1 mb 0.00 in0.0 mm 0.00 in0.0 mm 0.09 in2.3 mm
04:40 AM 44.4°F6.9°C 42.8°F6.0°C 89% 2.0 mph ESE3.2 kmh ESE 5.4 mph8.7 kmh 29.71 in1006.1 mb 0.00 in0.0 mm 0.00 in0.0 mm 0.09 in2.3 mm
04:35 AM 44.4°F6.9°C 42.8°F6.0°C 89% 2.2 mph SE3.5 kmh SE 5.8 mph9.3 kmh 29.71 in1006.1 mb 0.00 in0.0 mm 0.00 in0.0 mm 0.09 in2.3 mm
04:30 AM 44.4°F6.9°C 42.8°F6.0°C 89% 2.7 mph SE4.3 kmh SE 5.8 mph9.3 kmh 29.71 in1006.1 mb 0.00 in0.0 mm 0.00 in0.0 mm 0.09 in2.3 mm
04:25 AM 44.4°F6.9°C 42.8°F6.0°C 89% 4.3 mph SE6.9 kmh SE 5.6 mph9.0 kmh 29.71 in1006.1 mb 0.00 in0.0 mm 0.00 in0.0 mm 0.09 in2.3 mm
04:20 AM 44.4°F6.9°C 41.0°F5.0°C 88% 2.7 mph SE4.3 kmh SE 3.1 mph5.0 kmh 29.71 in1006.1 mb 0.00 in0.0 mm 0.00 in0.0 mm 0.09 in2.3 mm
04:15 AM 44.4°F6.9°C 41.0°F5.0°C 86% 2.7 mph ESE4.3 kmh ESE 3.1 mph5.0 kmh 29.71 in1006.1 mb 0.04 in1.0 mm 0.00 in0.0 mm 0.09 in2.3 mm
04:10 AM 44.2°F6.8°C 41.0°F5.0°C 85% 1.6 mph E2.6 kmh E 2.5 mph4.0 kmh 29.71 in1006.1 mb 0.04 in1.0 mm 0.00 in0.0 mm 0.09 in2.3 mm
04:05 AM 44.2°F6.8°C 39.2°F4.0°C 84% 1.1 mph E1.8 kmh E 2.0 mph3.2 kmh 29.71 in1006.1 mb 0.04 in1.0 mm 0.00 in0.0 mm 0.09 in2.3 mm
04:00 AM 44.1°F6.7°C 39.2°F4.0°C 84% Calm Calm -- 29.71 in1006.1 mb 0.04 in1.0 mm 0.00 in0.0 mm 0.09 in2.3 mm
03:55 AM 44.2°F6.8°C 39.2°F4.0°C 84% Calm Calm 1.6 mph2.6 kmh 29.68 in1005.1 mb 0.04 in1.0 mm 0.00 in0.0 mm 0.09 in2.3 mm
03:50 AM 44.2°F6.8°C 39.2°F4.0°C 84% 1.3 mph ENE2.1 kmh ENE 2.5 mph4.0 kmh 29.68 in1005.1 mb 0.04 in1.0 mm 0.00 in0.0 mm 0.09 in2.3 mm
03:45 AM 44.2°F6.8°C 39.2°F4.0°C 84% 0.9 mph ENE1.4 kmh ENE 2.5 mph4.0 kmh 29.68 in1005.1 mb 0.04 in1.0 mm 0.00 in0.0 mm 0.09 in2.3 mm
03:40 AM 44.2°F6.8°C 39.2°F4.0°C 84% Calm Calm 2.2 mph3.5 kmh 29.73 in1006.8 mb 0.04 in1.0 mm 0.00 in0.0 mm 0.09 in2.3 mm
03:35 AM 44.2°F6.8°C 39.2°F4.0°C 84% Calm Calm 2.2 mph3.5 kmh 29.73 in1006.8 mb 0.04 in1.0 mm 0.00 in0.0 mm 0.09 in2.3 mm
03:30 AM 44.2°F6.8°C 39.2°F4.0°C 84% 1.1 mph NE1.8 kmh NE 2.2 mph3.5 kmh 29.73 in1006.8 mb 0.09 in2.3 mm 0.00 in0.0 mm 0.09 in2.3 mm
03:25 AM 44.2°F6.8°C 39.2°F4.0°C 84% Calm Calm 2.5 mph4.0 kmh 29.73 in1006.8 mb 0.09 in2.3 mm 0.00 in0.0 mm 0.09 in2.3 mm
03:20 AM 44.4°F6.9°C 39.2°F4.0°C 83% Calm Calm 2.5 mph4.0 kmh 29.73 in1006.8 mb 0.09 in2.3 mm 0.48 in12.2 mm 0.09 in2.3 mm
03:15 AM 44.4°F6.9°C 39.2°F4.0°C 83% Calm Calm -- 29.73 in1006.8 mb 0.05 in1.3 mm 0.00 in0.0 mm 0.05 in1.3 mm
03:10 AM 44.4°F6.9°C 39.2°F4.0°C 81% Calm Calm -- 29.73 in1006.8 mb 0.05 in1.3 mm 0.00 in0.0 mm 0.05 in1.3 mm
03:05 AM 44.4°F6.9°C 39.2°F4.0°C 81% Calm Calm -- 29.73 in1006.8 mb 0.05 in1.3 mm 0.00 in0.0 mm 0.05 in1.3 mm
03:00 AM 44.4°F6.9°C 39.2°F4.0°C 80% Calm Calm -- 29.73 in1006.8 mb 0.05 in1.3 mm 0.00 in0.0 mm 0.05 in1.3 mm
02:55 AM 44.4°F6.9°C 39.2°F4.0°C 80% Calm Calm 0.9 mph1.4 kmh 29.77 in1008.1 mb 0.05 in1.3 mm 0.00 in0.0 mm 0.05 in1.3 mm
02:50 AM 44.4°F6.9°C 39.2°F4.0°C 80% Calm Calm 0.9 mph1.4 kmh 29.77 in1008.1 mb 0.05 in1.3 mm 0.00 in0.0 mm 0.05 in1.3 mm
02:45 AM 44.4°F6.9°C 39.2°F4.0°C 80% Calm Calm 1.1 mph1.8 kmh 29.77 in1008.1 mb 0.05 in1.3 mm 0.00 in0.0 mm 0.05 in1.3 mm
02:40 AM 44.6°F7.0°C 39.2°F4.0°C 80% Calm Calm 1.3 mph2.1 kmh 29.73 in1006.8 mb 0.05 in1.3 mm 0.00 in0.0 mm 0.05 in1.3 mm
02:35 AM 44.6°F7.0°C 39.2°F4.0°C 79% 0.9 mph ENE1.4 kmh ENE 1.3 mph2.1 kmh 29.73 in1006.8 mb 0.05 in1.3 mm 0.60 in15.2 mm 0.05 in1.3 mm
02:30 AM 44.6°F7.0°C 39.2°F4.0°C 79% Calm Calm 1.3 mph2.1 kmh 29.73 in1006.8 mb 0.00 in0.0 mm 0.00 in0.0 mm 0.00 in0.0 mm
02:25 AM 44.6°F7.0°C 39.2°F4.0°C 79% Calm Calm -- 29.73 in1006.8 mb 0.00 in0.0 mm 0.00 in0.0 mm 0.00 in0.0 mm
02:20 AM 44.6°F7.0°C 37.4°F3.0°C 78% Calm Calm 1.6 mph2.6 kmh 29.73 in1006.8 mb 0.00 in0.0 mm 0.00 in0.0 mm 0.00 in0.0 mm
02:15 AM 44.8°F7.1°C 37.4°F3.0°C 78% Calm Calm 1.6 mph2.6 kmh 29.73 in1006.8 mb 0.00 in0.0 mm 0.00 in0.0 mm 0.00 in0.0 mm
02:10 AM 44.8°F7.1°C 37.4°F3.0°C 78% Calm Calm 1.3 mph2.1 kmh 29.77 in1008.1 mb 0.00 in0.0 mm 0.00 in0.0 mm 0.00 in0.0 mm
02:05 AM 45.0°F7.2°C 39.2°F4.0°C 77% Calm Calm 1.6 mph2.6 kmh 29.77 in1008.1 mb 0.00 in0.0 mm 0.00 in0.0 mm 0.00 in0.0 mm
02:00 AM 45.1°F7.3°C 37.4°F3.0°C 76% Calm Calm 1.6 mph2.6 kmh 29.77 in1008.1 mb 0.00 in0.0 mm 0.00 in0.0 mm 0.00 in0.0 mm
01:55 AM 45.3°F7.4°C 37.4°F3.0°C 76% Calm Calm 1.1 mph1.8 kmh 29.77 in1008.1 mb 0.00 in0.0 mm 0.00 in0.0 mm 0.00 in0.0 mm
01:50 AM 45.3°F7.4°C 37.4°F3.0°C 75% Calm Calm -- 29.77 in1008.1 mb 0.00 in0.0 mm 0.00 in0.0 mm 0.00 in0.0 mm
01:45 AM 45.5°F7.5°C 37.4°F3.0°C 74% Calm Calm -- 29.77 in1008.1 mb 0.00 in0.0 mm 0.00 in0.0 mm 0.00 in0.0 mm
01:40 AM 45.7°F7.6°C 37.4°F3.0°C 73% Calm Calm -- 29.77 in1008.1 mb 0.00 in0.0 mm 0.00 in0.0 mm 0.00 in0.0 mm
01:35 AM 45.7°F7.6°C 37.4°F3.0°C 73% Calm Calm -- 29.77 in1008.1 mb 0.00 in0.0 mm 0.00 in0.0 mm 0.00 in0.0 mm
01:30 AM 45.7°F7.6°C 37.4°F3.0°C 72% Calm Calm 2.7 mph4.3 kmh 29.77 in1008.1 mb 0.00 in0.0 mm 0.00 in0.0 mm 0.00 in0.0 mm
01:25 AM 45.9°F7.7°C 37.4°F3.0°C 72% 1.1 mph ENE1.8 kmh ENE 2.7 mph4.3 kmh 29.77 in1008.1 mb 0.00 in0.0 mm 0.00 in0.0 mm 0.00 in0.0 mm
01:20 AM 45.9°F7.7°C 37.4°F3.0°C 72% Calm Calm 2.5 mph4.0 kmh 29.77 in1008.1 mb 0.00 in0.0 mm 0.00 in0.0 mm 0.00 in0.0 mm
01:15 AM 45.9°F7.7°C 37.4°F3.0°C 71% Calm Calm 2.5 mph4.0 kmh 29.77 in1008.1 mb 0.00 in0.0 mm 0.00 in0.0 mm 0.00 in0.0 mm
01:10 AM 45.9°F7.7°C 37.4°F3.0°C 71% Calm Calm 3.8 mph6.1 kmh 29.73 in1006.8 mb 0.00 in0.0 mm 0.00 in0.0 mm 0.00 in0.0 mm
01:05 AM 45.9°F7.7°C 37.4°F3.0°C 71% 0.9 mph E1.4 kmh E 3.8 mph6.1 kmh 29.73 in1006.8 mb 0.00 in0.0 mm 0.00 in0.0 mm 0.00 in0.0 mm
01:00 AM 45.7°F7.6°C 37.4°F3.0°C 72% 1.6 mph E2.6 kmh E 3.8 mph6.1 kmh 29.73 in1006.8 mb 0.00 in0.0 mm 0.00 in0.0 mm 0.00 in0.0 mm
12:55 AM 45.7°F7.6°C 37.4°F3.0°C 72% 2.0 mph E3.2 kmh E 3.8 mph6.1 kmh 29.77 in1008.1 mb 0.00 in0.0 mm 0.00 in0.0 mm 0.00 in0.0 mm
12:50 AM 45.7°F7.6°C 37.4°F3.0°C 74% 2.2 mph E3.5 kmh E 3.1 mph5.0 kmh 29.77 in1008.1 mb 0.00 in0.0 mm 0.00 in0.0 mm 0.00 in0.0 mm
12:45 AM 45.7°F7.6°C 37.4°F3.0°C 72% 0.9 mph ENE1.4 kmh ENE 3.4 mph5.5 kmh 29.77 in1008.1 mb 0.00 in0.0 mm 0.00 in0.0 mm 0.00 in0.0 mm
12:40 AM 45.5°F7.5°C 37.4°F3.0°C 71% 2.0 mph ENE3.2 kmh ENE 3.4 mph5.5 kmh 29.77 in1008.1 mb 0.00 in0.0 mm 0.00 in0.0 mm 0.00 in0.0 mm
12:35 AM 45.5°F7.5°C 37.4°F3.0°C 71% Calm Calm 3.1 mph5.0 kmh 29.77 in1008.1 mb 0.00 in0.0 mm 0.00 in0.0 mm 0.00 in0.0 mm
12:30 AM 45.5°F7.5°C 37.4°F3.0°C 71% 1.6 mph E2.6 kmh E 3.4 mph5.5 kmh 29.77 in1008.1 mb 0.00 in0.0 mm 0.00 in0.0 mm 0.00 in0.0 mm
12:25 AM 45.3°F7.4°C 37.4°F3.0°C 72% 2.5 mph E4.0 kmh E 3.4 mph5.5 kmh 29.79 in1008.8 mb 0.00 in0.0 mm 0.00 in0.0 mm 0.00 in0.0 mm
12:20 AM 45.3°F7.4°C 37.4°F3.0°C 72% Calm Calm 4.7 mph7.6 kmh 29.79 in1008.8 mb 0.00 in0.0 mm 0.00 in0.0 mm 0.00 in0.0 mm
12:15 AM 45.1°F7.3°C 37.4°F3.0°C 72% 1.6 mph E2.6 kmh E 4.7 mph7.6 kmh 29.79 in1008.8 mb 0.00 in0.0 mm 0.00 in0.0 mm 0.00 in0.0 mm
12:10 AM 45.1°F7.3°C 37.4°F3.0°C 73% Calm Calm 2.0 mph3.2 kmh 29.79 in1008.8 mb 0.00 in0.0 mm 0.00 in0.0 mm 0.00 in0.0 mm
12:05 AM 45.0°F7.2°C 37.4°F3.0°C 73% Calm Calm 1.3 mph2.1 kmh 29.79 in1008.8 mb 0.00 in0.0 mm 0.00 in0.0 mm 0.00 in0.0 mm
12:00 AM 45.0°F7.2°C 37.4°F3.0°C 73% Calm Calm 2.5 mph4.0 kmh 29.79 in1008.8 mb 0.00 in0.0 mm 0.00 in0.0 mm 0.00 in0.0 mm